EQY weather

Charlotte-Monroe Executive Airport
Monroe, North Carolina, United States

Public forecast

Using degrees Fahrenheit for public forecast. Weather courtesy of forecast.io.

Current aviation weather report (METAR) for Charlotte-Monroe Executive Airport

Retrieved 2020/02/19 02:53 UTC (21 minutes ago):

KEQY 190253Z AUTO 20003KT 10SM -RA FEW060 BKN110 14/13 A3008 RMK AO2 SLP197 P0003 60020 T01390128 58004

Closest aviation forecast (TAF) to Charlotte-Monroe Executive Airport

Closest forecast is Charlotte Douglas International Airport, 19.7 nm (36.5 km) NW. Retrieved 2020-02-19 00:42 UTC (3 hours ago):

TAF KCLT 182340Z 1900/2006 19006KT P6SM -RA SCT008 OVC011 TEMPO 1900/1903 4SM -RA BR BKN008 FM190300 20006KT 6SM -RA BR OVC006 FM190800 34007KT 5SM -RA BR OVC007 FM191000 01009KT P6SM OVC015 FM191500 03010G16KT P6SM OVC035 FM192100 06008KT P6SM OVC060